sensor_id;sensor_type;location;lat;lon;timestamp;P1;durP1;ratioP1;P2;durP2;ratioP2
7833;SDS011;3962;42.696;23.354;2023-04-08T00:02:07;38.00;;;23.10;;
7833;SDS011;3962;42.696;23.354;2023-04-08T00:04:34;36.97;;;24.13;;
7833;SDS011;3962;42.696;23.354;2023-04-08T00:07:01;35.63;;;22.53;;
7833;SDS011;3962;42.696;23.354;2023-04-08T00:09:28;37.00;;;22.90;;
7833;SDS011;3962;42.696;23.354;2023-04-08T00:11:55;36.37;;;22.40;;
7833;SDS011;3962;42.696;23.354;2023-04-08T00:14:22;39.97;;;23.40;;
7833;SDS011;3962;42.696;23.354;2023-04-08T00:16:48;39.27;;;23.33;;
7833;SDS011;3962;42.696;23.354;2023-04-08T00:19:16;47.00;;;24.97;;
7833;SDS011;3962;42.696;23.354;2023-04-08T00:21:44;41.20;;;24.67;;
7833;SDS011;3962;42.696;23.354;2023-04-08T00:24:11;41.00;;;25.03;;
7833;SDS011;3962;42.696;23.354;2023-04-08T00:26:38;41.50;;;25.00;;
7833;SDS011;3962;42.696;23.354;2023-04-08T00:29:05;43.20;;;26.00;;
7833;SDS011;3962;42.696;23.354;2023-04-08T00:31:32;42.60;;;25.07;;
7833;SDS011;3962;42.696;23.354;2023-04-08T00:33:59;46.00;;;27.03;;
7833;SDS011;3962;42.696;23.354;2023-04-08T00:36:27;42.83;;;25.87;;
7833;SDS011;3962;42.696;23.354;2023-04-08T00:38:54;40.07;;;25.13;;
7833;SDS011;3962;42.696;23.354;2023-04-08T00:41:20;45.67;;;26.33;;
7833;SDS011;3962;42.696;23.354;2023-04-08T00:43:47;48.40;;;27.20;;
7833;SDS011;3962;42.696;23.354;2023-04-08T00:46:14;42.77;;;26.40;;
7833;SDS011;3962;42.696;23.354;2023-04-08T00:48:41;39.17;;;24.90;;
7833;SDS011;3962;42.696;23.354;2023-04-08T00:51:08;38.90;;;23.60;;
7833;SDS011;3962;42.696;23.354;2023-04-08T00:53:36;41.03;;;24.93;;
7833;SDS011;3962;42.696;23.354;2023-04-08T00:56:03;41.27;;;26.37;;
7833;SDS011;3962;42.696;23.354;2023-04-08T00:58:30;44.43;;;27.60;;
7833;SDS011;3962;42.696;23.354;2023-04-08T01:00:59;43.10;;;26.70;;
7833;SDS011;3962;42.696;23.354;2023-04-08T01:03:33;43.13;;;26.57;;
7833;SDS011;3962;42.696;23.354;2023-04-08T01:06:10;44.23;;;26.23;;
7833;SDS011;3962;42.696;23.354;2023-04-08T01:08:42;42.90;;;26.93;;
7833;SDS011;3962;42.696;23.354;2023-04-08T01:11:11;43.67;;;27.47;;
7833;SDS011;3962;42.696;23.354;2023-04-08T01:13:39;46.97;;;28.43;;
7833;SDS011;3962;42.696;23.354;2023-04-08T01:16:08;44.20;;;27.33;;
7833;SDS011;3962;42.696;23.354;2023-04-08T01:18:38;44.07;;;27.70;;
7833;SDS011;3962;42.696;23.354;2023-04-08T01:21:06;51.20;;;28.70;;
7833;SDS011;3962;42.696;23.354;2023-04-08T01:23:36;43.70;;;28.57;;
7833;SDS011;3962;42.696;23.354;2023-04-08T01:26:10;46.23;;;29.40;;
7833;SDS011;3962;42.696;23.354;2023-04-08T01:28:45;45.17;;;29.20;;
7833;SDS011;3962;42.696;23.354;2023-04-08T01:31:14;49.70;;;28.93;;
7833;SDS011;3962;42.696;23.354;2023-04-08T01:33:42;45.03;;;29.00;;
7833;SDS011;3962;42.696;23.354;2023-04-08T01:36:11;47.53;;;29.30;;
7833;SDS011;3962;42.696;23.354;2023-04-08T01:38:38;51.80;;;31.70;;
7833;SDS011;3962;42.696;23.354;2023-04-08T01:41:05;50.90;;;30.77;;
7833;SDS011;3962;42.696;23.354;2023-04-08T01:43:35;48.53;;;29.67;;
7833;SDS011;3962;42.696;23.354;2023-04-08T01:46:05;62.07;;;32.17;;
7833;SDS011;3962;42.696;23.354;2023-04-08T01:48:33;50.53;;;32.00;;
7833;SDS011;3962;42.696;23.354;2023-04-08T01:51:01;49.67;;;29.37;;
7833;SDS011;3962;42.696;23.354;2023-04-08T01:53:30;49.03;;;27.70;;
7833;SDS011;3962;42.696;23.354;2023-04-08T01:56:00;51.97;;;27.63;;
7833;SDS011;3962;42.696;23.354;2023-04-08T01:58:31;54.67;;;29.43;;
7833;SDS011;3962;42.696;23.354;2023-04-08T02:01:09;37.10;;;25.83;;
7833;SDS011;3962;42.696;23.354;2023-04-08T02:03:37;43.67;;;25.20;;
7833;SDS011;3962;42.696;23.354;2023-04-08T02:06:07;40.73;;;26.20;;
7833;SDS011;3962;42.696;23.354;2023-04-08T02:08:34;43.10;;;26.07;;
7833;SDS011;3962;42.696;23.354;2023-04-08T02:11:01;46.50;;;29.23;;
7833;SDS011;3962;42.696;23.354;2023-04-08T02:13:28;41.27;;;26.23;;
7833;SDS011;3962;42.696;23.354;2023-04-08T02:16:00;42.07;;;26.13;;
7833;SDS011;3962;42.696;23.354;2023-04-08T02:18:30;36.33;;;21.83;;
7833;SDS011;3962;42.696;23.354;2023-04-08T02:21:01;37.07;;;23.47;;
7833;SDS011;3962;42.696;23.354;2023-04-08T02:23:34;39.57;;;23.10;;
7833;SDS011;3962;42.696;23.354;2023-04-08T02:26:05;43.47;;;25.00;;
7833;SDS011;3962;42.696;23.354;2023-04-08T02:28:34;41.47;;;23.73;;
7833;SDS011;3962;42.696;23.354;2023-04-08T02:31:03;42.10;;;25.50;;
7833;SDS011;3962;42.696;23.354;2023-04-08T02:33:33;40.43;;;25.97;;
7833;SDS011;3962;42.696;23.354;2023-04-08T02:36:01;39.93;;;24.63;;
7833;SDS011;3962;42.696;23.354;2023-04-08T02:38:29;40.20;;;25.20;;
7833;SDS011;3962;42.696;23.354;2023-04-08T02:40:56;34.77;;;23.50;;
7833;SDS011;3962;42.696;23.354;2023-04-08T02:43:23;42.00;;;25.23;;
7833;SDS011;3962;42.696;23.354;2023-04-08T02:45:56;40.10;;;24.83;;
7833;SDS011;3962;42.696;23.354;2023-04-08T02:48:25;37.87;;;24.03;;
7833;SDS011;3962;42.696;23.354;2023-04-08T02:50:52;41.40;;;25.47;;
7833;SDS011;3962;42.696;23.354;2023-04-08T02:53:18;38.23;;;25.33;;
7833;SDS011;3962;42.696;23.354;2023-04-08T02:55:45;45.00;;;25.70;;
7833;SDS011;3962;42.696;23.354;2023-04-08T02:58:12;44.23;;;24.87;;
7833;SDS011;3962;42.696;23.354;2023-04-08T03:00:39;42.33;;;25.00;;
7833;SDS011;3962;42.696;23.354;2023-04-08T03:03:06;37.63;;;24.40;;
7833;SDS011;3962;42.696;23.354;2023-04-08T03:05:34;37.63;;;23.40;;
7833;SDS011;3962;42.696;23.354;2023-04-08T03:08:00;36.30;;;22.40;;
7833;SDS011;3962;42.696;23.354;2023-04-08T03:10:27;32.17;;;22.33;;
7833;SDS011;3962;42.696;23.354;2023-04-08T03:12:54;34.23;;;22.33;;
7833;SDS011;3962;42.696;23.354;2023-04-08T03:15:21;40.83;;;24.60;;
7833;SDS011;3962;42.696;23.354;2023-04-08T03:17:48;33.87;;;22.50;;
7833;SDS011;3962;42.696;23.354;2023-04-08T03:20:14;37.57;;;23.40;;
7833;SDS011;3962;42.696;23.354;2023-04-08T03:22:43;40.13;;;23.93;;
7833;SDS011;3962;42.696;23.354;2023-04-08T03:25:09;40.50;;;23.30;;
7833;SDS011;3962;42.696;23.354;2023-04-08T03:27:36;40.60;;;24.30;;
7833;SDS011;3962;42.696;23.354;2023-04-08T03:30:03;37.67;;;24.03;;
7833;SDS011;3962;42.696;23.354;2023-04-08T03:32:31;34.43;;;23.70;;
7833;SDS011;3962;42.696;23.354;2023-04-08T03:34:58;42.03;;;24.73;;
7833;SDS011;3962;42.696;23.354;2023-04-08T03:37:25;39.77;;;24.93;;
7833;SDS011;3962;42.696;23.354;2023-04-08T03:39:53;36.87;;;23.70;;
7833;SDS011;3962;42.696;23.354;2023-04-08T03:42:20;39.43;;;25.67;;
7833;SDS011;3962;42.696;23.354;2023-04-08T03:44:47;40.30;;;24.00;;
7833;SDS011;3962;42.696;23.354;2023-04-08T03:47:14;43.23;;;24.87;;
7833;SDS011;3962;42.696;23.354;2023-04-08T03:49:40;42.30;;;25.97;;
7833;SDS011;3962;42.696;23.354;2023-04-08T03:52:07;42.17;;;24.93;;
7833;SDS011;3962;42.696;23.354;2023-04-08T03:54:34;38.20;;;24.33;;
7833;SDS011;3962;42.696;23.354;2023-04-08T03:57:02;42.17;;;26.53;;
7833;SDS011;3962;42.696;23.354;2023-04-08T03:59:29;41.47;;;26.23;;
7833;SDS011;3962;42.696;23.354;2023-04-08T04:01:58;51.20;;;27.53;;
7833;SDS011;3962;42.696;23.354;2023-04-08T04:04:24;45.17;;;27.23;;
7833;SDS011;3962;42.696;23.354;2023-04-08T04:06:51;48.53;;;26.90;;
7833;SDS011;3962;42.696;23.354;2023-04-08T04:09:18;42.20;;;25.93;;
7833;SDS011;3962;42.696;23.354;2023-04-08T04:11:45;46.33;;;27.37;;
7833;SDS011;3962;42.696;23.354;2023-04-08T04:14:13;37.37;;;24.10;;
7833;SDS011;3962;42.696;23.354;2023-04-08T04:16:40;38.60;;;23.47;;
7833;SDS011;3962;42.696;23.354;2023-04-08T04:19:06;37.93;;;23.83;;
7833;SDS011;3962;42.696;23.354;2023-04-08T04:21:33;42.53;;;25.23;;
7833;SDS011;3962;42.696;23.354;2023-04-08T04:24:00;34.57;;;22.33;;
7833;SDS011;3962;42.696;23.354;2023-04-08T04:26:27;37.37;;;23.00;;
7833;SDS011;3962;42.696;23.354;2023-04-08T04:28:53;35.00;;;21.63;;
7833;SDS011;3962;42.696;23.354;2023-04-08T04:31:22;40.77;;;23.77;;
7833;SDS011;3962;42.696;23.354;2023-04-08T04:33:50;36.53;;;24.00;;
7833;SDS011;3962;42.696;23.354;2023-04-08T04:36:17;36.83;;;23.90;;
7833;SDS011;3962;42.696;23.354;2023-04-08T04:38:44;36.40;;;24.00;;
7833;SDS011;3962;42.696;23.354;2023-04-08T04:41:12;40.03;;;23.87;;
7833;SDS011;3962;42.696;23.354;2023-04-08T04:43:39;43.97;;;24.63;;
7833;SDS011;3962;42.696;23.354;2023-04-08T04:46:05;37.10;;;23.57;;
7833;SDS011;3962;42.696;23.354;2023-04-08T04:48:34;35.70;;;22.83;;
7833;SDS011;3962;42.696;23.354;2023-04-08T04:51:01;36.93;;;22.03;;
7833;SDS011;3962;42.696;23.354;2023-04-08T04:53:28;33.77;;;21.30;;
7833;SDS011;3962;42.696;23.354;2023-04-08T04:55:55;30.73;;;20.80;;
7833;SDS011;3962;42.696;23.354;2023-04-08T04:58:22;32.97;;;21.53;;
7833;SDS011;3962;42.696;23.354;2023-04-08T05:00:49;33.03;;;20.60;;
7833;SDS011;3962;42.696;23.354;2023-04-08T05:03:16;37.10;;;21.37;;
7833;SDS011;3962;42.696;23.354;2023-04-08T05:05:44;32.30;;;20.17;;
7833;SDS011;3962;42.696;23.354;2023-04-08T05:08:15;42.77;;;22.50;;
7833;SDS011;3962;42.696;23.354;2023-04-08T05:10:42;37.97;;;22.20;;
7833;SDS011;3962;42.696;23.354;2023-04-08T05:13:09;41.20;;;22.27;;
7833;SDS011;3962;42.696;23.354;2023-04-08T05:15:36;38.27;;;23.40;;
7833;SDS011;3962;42.696;23.354;2023-04-08T05:18:03;41.30;;;23.47;;
7833;SDS011;3962;42.696;23.354;2023-04-08T05:20:29;38.43;;;24.50;;
7833;SDS011;3962;42.696;23.354;2023-04-08T05:22:58;33.77;;;20.63;;
7833;SDS011;3962;42.696;23.354;2023-04-08T05:25:24;36.20;;;22.10;;
7833;SDS011;3962;42.696;23.354;2023-04-08T05:27:51;33.33;;;22.47;;
7833;SDS011;3962;42.696;23.354;2023-04-08T05:30:19;30.97;;;20.53;;
7833;SDS011;3962;42.696;23.354;2023-04-08T05:32:46;33.63;;;22.13;;
7833;SDS011;3962;42.696;23.354;2023-04-08T05:35:13;35.27;;;22.30;;
7833;SDS011;3962;42.696;23.354;2023-04-08T05:37:39;25.23;;;16.27;;
7833;SDS011;3962;42.696;23.354;2023-04-08T05:40:08;20.47;;;14.47;;
7833;SDS011;3962;42.696;23.354;2023-04-08T05:42:35;21.70;;;14.53;;
7833;SDS011;3962;42.696;23.354;2023-04-08T05:45:02;23.10;;;15.80;;
7833;SDS011;3962;42.696;23.354;2023-04-08T05:47:30;23.90;;;17.27;;
7833;SDS011;3962;42.696;23.354;2023-04-08T05:49:56;23.63;;;15.47;;
7833;SDS011;3962;42.696;23.354;2023-04-08T05:52:23;25.17;;;15.77;;
7833;SDS011;3962;42.696;23.354;2023-04-08T05:54:50;24.53;;;16.53;;
7833;SDS011;3962;42.696;23.354;2023-04-08T05:57:18;21.30;;;15.03;;
7833;SDS011;3962;42.696;23.354;2023-04-08T05:59:45;39.60;;;20.57;;
7833;SDS011;3962;42.696;23.354;2023-04-08T06:02:12;25.13;;;15.77;;
7833;SDS011;3962;42.696;23.354;2023-04-08T06:04:39;21.10;;;15.57;;
7833;SDS011;3962;42.696;23.354;2023-04-08T06:07:05;28.97;;;17.57;;
7833;SDS011;3962;42.696;23.354;2023-04-08T06:09:33;28.07;;;16.57;;
7833;SDS011;3962;42.696;23.354;2023-04-08T06:12:01;28.30;;;17.17;;
7833;SDS011;3962;42.696;23.354;2023-04-08T06:14:29;29.33;;;17.63;;
7833;SDS011;3962;42.696;23.354;2023-04-08T06:16:56;31.53;;;17.80;;
7833;SDS011;3962;42.696;23.354;2023-04-08T06:19:23;28.23;;;18.03;;
7833;SDS011;3962;42.696;23.354;2023-04-08T06:21:50;30.10;;;17.67;;
7833;SDS011;3962;42.696;23.354;2023-04-08T06:24:16;28.20;;;17.87;;
7833;SDS011;3962;42.696;23.354;2023-04-08T06:26:43;33.50;;;19.23;;
7833;SDS011;3962;42.696;23.354;2023-04-08T06:29:10;27.47;;;18.63;;
7833;SDS011;3962;42.696;23.354;2023-04-08T06:31:38;28.80;;;18.90;;
7833;SDS011;3962;42.696;23.354;2023-04-08T06:34:05;32.17;;;18.17;;
7833;SDS011;3962;42.696;23.354;2023-04-08T06:36:32;30.50;;;18.47;;
7833;SDS011;3962;42.696;23.354;2023-04-08T06:38:59;30.87;;;19.83;;
7833;SDS011;3962;42.696;23.354;2023-04-08T06:41:25;34.87;;;20.53;;
7833;SDS011;3962;42.696;23.354;2023-04-08T06:43:52;27.50;;;17.87;;
7833;SDS011;3962;42.696;23.354;2023-04-08T06:46:19;30.17;;;18.07;;
7833;SDS011;3962;42.696;23.354;2023-04-08T06:48:47;39.77;;;18.97;;
7833;SDS011;3962;42.696;23.354;2023-04-08T06:51:14;31.70;;;19.63;;
7833;SDS011;3962;42.696;23.354;2023-04-08T06:53:41;27.47;;;18.23;;
7833;SDS011;3962;42.696;23.354;2023-04-08T06:56:07;32.80;;;20.40;;
7833;SDS011;3962;42.696;23.354;2023-04-08T06:58:35;39.03;;;21.40;;
7833;SDS011;3962;42.696;23.354;2023-04-08T07:01:02;37.27;;;22.40;;
7833;SDS011;3962;42.696;23.354;2023-04-08T07:03:29;33.33;;;21.97;;
7833;SDS011;3962;42.696;23.354;2023-04-08T07:05:57;32.60;;;21.23;;
7833;SDS011;3962;42.696;23.354;2023-04-08T07:08:23;36.37;;;21.10;;
7833;SDS011;3962;42.696;23.354;2023-04-08T07:10:51;26.57;;;18.97;;
7833;SDS011;3962;42.696;23.354;2023-04-08T07:13:18;38.20;;;19.27;;
7833;SDS011;3962;42.696;23.354;2023-04-08T07:15:45;30.10;;;17.87;;
7833;SDS011;3962;42.696;23.354;2023-04-08T07:18:11;24.47;;;16.23;;
7833;SDS011;3962;42.696;23.354;2023-04-08T07:20:38;20.17;;;15.23;;
7833;SDS011;3962;42.696;23.354;2023-04-08T07:23:08;25.90;;;16.30;;
7833;SDS011;3962;42.696;23.354;2023-04-08T07:25:34;27.67;;;17.13;;
7833;SDS011;3962;42.696;23.354;2023-04-08T07:28:01;27.27;;;16.80;;
7833;SDS011;3962;42.696;23.354;2023-04-08T07:30:28;23.83;;;15.67;;
7833;SDS011;3962;42.696;23.354;2023-04-08T07:32:55;23.40;;;15.80;;
7833;SDS011;3962;42.696;23.354;2023-04-08T07:35:22;22.77;;;15.07;;
7833;SDS011;3962;42.696;23.354;2023-04-08T07:37:50;23.33;;;15.47;;
7833;SDS011;3962;42.696;23.354;2023-04-08T07:40:18;23.87;;;15.57;;
7833;SDS011;3962;42.696;23.354;2023-04-08T07:42:46;23.63;;;15.13;;
7833;SDS011;3962;42.696;23.354;2023-04-08T07:45:13;27.77;;;15.30;;
7833;SDS011;3962;42.696;23.354;2023-04-08T07:47:40;21.53;;;15.10;;
7833;SDS011;3962;42.696;23.354;2023-04-08T07:50:07;22.40;;;14.97;;
7833;SDS011;3962;42.696;23.354;2023-04-08T07:52:34;21.13;;;14.03;;
7833;SDS011;3962;42.696;23.354;2023-04-08T07:55:01;24.57;;;13.97;;
7833;SDS011;3962;42.696;23.354;2023-04-08T07:57:31;28.07;;;15.50;;
7833;SDS011;3962;42.696;23.354;2023-04-08T07:59:58;24.30;;;15.50;;
7833;SDS011;3962;42.696;23.354;2023-04-08T08:02:24;25.43;;;15.87;;
7833;SDS011;3962;42.696;23.354;2023-04-08T08:04:51;25.83;;;16.23;;
7833;SDS011;3962;42.696;23.354;2023-04-08T08:07:18;28.80;;;16.57;;
7833;SDS011;3962;42.696;23.354;2023-04-08T08:09:45;23.97;;;16.07;;
7833;SDS011;3962;42.696;23.354;2023-04-08T08:12:12;20.87;;;13.83;;
7833;SDS011;3962;42.696;23.354;2023-04-08T08:14:40;23.00;;;16.30;;
7833;SDS011;3962;42.696;23.354;2023-04-08T08:17:06;23.77;;;15.23;;
7833;SDS011;3962;42.696;23.354;2023-04-08T08:19:33;24.03;;;14.73;;
7833;SDS011;3962;42.696;23.354;2023-04-08T08:22:00;23.37;;;16.23;;
7833;SDS011;3962;42.696;23.354;2023-04-08T08:24:27;20.70;;;13.87;;
7833;SDS011;3962;42.696;23.354;2023-04-08T08:26:54;19.97;;;13.90;;
7833;SDS011;3962;42.696;23.354;2023-04-08T08:29:20;22.67;;;14.57;;
7833;SDS011;3962;42.696;23.354;2023-04-08T08:31:49;29.60;;;15.20;;
7833;SDS011;3962;42.696;23.354;2023-04-08T08:34:15;22.10;;;14.83;;
7833;SDS011;3962;42.696;23.354;2023-04-08T08:36:42;22.63;;;15.30;;
7833;SDS011;3962;42.696;23.354;2023-04-08T08:39:09;31.97;;;17.40;;
7833;SDS011;3962;42.696;23.354;2023-04-08T08:41:36;31.57;;;17.57;;
7833;SDS011;3962;42.696;23.354;2023-04-08T08:44:04;30.23;;;17.43;;
7833;SDS011;3962;42.696;23.354;2023-04-08T08:46:32;26.43;;;16.37;;
7833;SDS011;3962;42.696;23.354;2023-04-08T08:49:01;29.07;;;17.40;;
7833;SDS011;3962;42.696;23.354;2023-04-08T08:51:28;29.07;;;17.63;;
7833;SDS011;3962;42.696;23.354;2023-04-08T08:53:56;27.57;;;17.03;;
7833;SDS011;3962;42.696;23.354;2023-04-08T08:56:26;24.63;;;16.60;;
7833;SDS011;3962;42.696;23.354;2023-04-08T08:58:53;30.73;;;18.57;;
7833;SDS011;3962;42.696;23.354;2023-04-08T09:01:30;27.93;;;15.30;;
7833;SDS011;3962;42.696;23.354;2023-04-08T09:04:08;27.77;;;16.57;;
7833;SDS011;3962;42.696;23.354;2023-04-08T09:06:40;29.07;;;16.37;;
7833;SDS011;3962;42.696;23.354;2023-04-08T09:09:08;26.70;;;17.37;;
7833;SDS011;3962;42.696;23.354;2023-04-08T09:11:37;28.80;;;17.80;;
7833;SDS011;3962;42.696;23.354;2023-04-08T09:14:15;28.13;;;17.47;;
7833;SDS011;3962;42.696;23.354;2023-04-08T09:16:43;29.33;;;16.00;;
7833;SDS011;3962;42.696;23.354;2023-04-08T09:19:12;28.60;;;17.50;;
7833;SDS011;3962;42.696;23.354;2023-04-08T09:21:39;33.23;;;16.27;;
7833;SDS011;3962;42.696;23.354;2023-04-08T09:24:06;28.37;;;15.53;;
7833;SDS011;3962;42.696;23.354;2023-04-08T09:26:33;26.27;;;16.10;;
7833;SDS011;3962;42.696;23.354;2023-04-08T09:29:02;28.17;;;17.20;;
7833;SDS011;3962;42.696;23.354;2023-04-08T09:31:30;24.47;;;14.53;;
7833;SDS011;3962;42.696;23.354;2023-04-08T09:33:59;26.70;;;15.40;;
7833;SDS011;3962;42.696;23.354;2023-04-08T09:36:28;24.97;;;15.00;;
7833;SDS011;3962;42.696;23.354;2023-04-08T09:38:56;22.17;;;13.30;;
7833;SDS011;3962;42.696;23.354;2023-04-08T09:41:23;26.67;;;16.40;;
7833;SDS011;3962;42.696;23.354;2023-04-08T09:43:54;22.67;;;14.10;;
7833;SDS011;3962;42.696;23.354;2023-04-08T09:46:25;23.23;;;14.80;;
7833;SDS011;3962;42.696;23.354;2023-04-08T09:48:55;23.10;;;14.40;;
7833;SDS011;3962;42.696;23.354;2023-04-08T09:51:35;21.87;;;12.77;;
7833;SDS011;3962;42.696;23.354;2023-04-08T09:54:09;28.67;;;15.07;;
7833;SDS011;3962;42.696;23.354;2023-04-08T09:56:40;23.70;;;13.63;;
7833;SDS011;3962;42.696;23.354;2023-04-08T09:59:14;22.27;;;13.97;;
7833;SDS011;3962;42.696;23.354;2023-04-08T10:01:53;27.27;;;15.07;;
7833;SDS011;3962;42.696;23.354;2023-04-08T10:04:23;22.07;;;14.30;;
7833;SDS011;3962;42.696;23.354;2023-04-08T10:06:56;22.50;;;13.83;;
7833;SDS011;3962;42.696;23.354;2023-04-08T10:09:26;22.30;;;14.07;;
7833;SDS011;3962;42.696;23.354;2023-04-08T10:11:54;26.53;;;14.50;;
7833;SDS011;3962;42.696;23.354;2023-04-08T10:14:21;23.27;;;13.33;;
7833;SDS011;3962;42.696;23.354;2023-04-08T10:16:51;23.03;;;14.10;;
7833;SDS011;3962;42.696;23.354;2023-04-08T10:19:50;24.30;;;14.30;;
7833;SDS011;3962;42.696;23.354;2023-04-08T10:27:59;29.17;;;14.10;;
7833;SDS011;3962;42.696;23.354;2023-04-08T10:30:40;27.00;;;13.67;;
7833;SDS011;3962;42.696;23.354;2023-04-08T10:33:11;26.53;;;13.30;;
7833;SDS011;3962;42.696;23.354;2023-04-08T10:35:41;24.37;;;14.73;;
7833;SDS011;3962;42.696;23.354;2023-04-08T10:38:12;22.00;;;12.90;;
7833;SDS011;3962;42.696;23.354;2023-04-08T10:40:40;17.47;;;12.00;;
7833;SDS011;3962;42.696;23.354;2023-04-08T10:43:08;23.97;;;14.80;;
7833;SDS011;3962;42.696;23.354;2023-04-08T10:45:35;27.60;;;14.03;;
7833;SDS011;3962;42.696;23.354;2023-04-08T10:48:12;22.50;;;14.17;;
7833;SDS011;3962;42.696;23.354;2023-04-08T10:50:42;23.90;;;13.57;;
7833;SDS011;3962;42.696;23.354;2023-04-08T10:53:09;23.93;;;14.27;;
7833;SDS011;3962;42.696;23.354;2023-04-08T10:55:38;23.80;;;14.30;;
7833;SDS011;3962;42.696;23.354;2023-04-08T10:58:05;27.20;;;13.20;;
7833;SDS011;3962;42.696;23.354;2023-04-08T11:00:33;18.57;;;12.07;;
7833;SDS011;3962;42.696;23.354;2023-04-08T11:03:01;21.07;;;13.17;;
7833;SDS011;3962;42.696;23.354;2023-04-08T11:05:29;22.63;;;13.37;;
7833;SDS011;3962;42.696;23.354;2023-04-08T11:07:56;23.47;;;14.10;;
7833;SDS011;3962;42.696;23.354;2023-04-08T11:10:23;21.60;;;12.83;;
7833;SDS011;3962;42.696;23.354;2023-04-08T11:12:52;25.37;;;13.77;;
7833;SDS011;3962;42.696;23.354;2023-04-08T11:15:20;34.73;;;16.70;;
7833;SDS011;3962;42.696;23.354;2023-04-08T11:17:48;21.67;;;13.57;;
7833;SDS011;3962;42.696;23.354;2023-04-08T11:20:15;21.50;;;13.47;;
7833;SDS011;3962;42.696;23.354;2023-04-08T11:22:43;26.33;;;15.17;;
7833;SDS011;3962;42.696;23.354;2023-04-08T11:25:27;23.33;;;14.73;;
7833;SDS011;3962;42.696;23.354;2023-04-08T11:27:59;23.50;;;13.37;;
7833;SDS011;3962;42.696;23.354;2023-04-08T11:30:26;19.20;;;11.37;;
7833;SDS011;3962;42.696;23.354;2023-04-08T11:32:55;19.07;;;11.23;;
7833;SDS011;3962;42.696;23.354;2023-04-08T11:35:23;13.33;;;8.83;;
7833;SDS011;3962;42.696;23.354;2023-04-08T11:37:53;18.03;;;9.73;;
7833;SDS011;3962;42.696;23.354;2023-04-08T11:40:22;21.57;;;11.87;;
7833;SDS011;3962;42.696;23.354;2023-04-08T11:42:51;25.90;;;13.33;;
7833;SDS011;3962;42.696;23.354;2023-04-08T11:45:24;18.30;;;12.43;;
7833;SDS011;3962;42.696;23.354;2023-04-08T11:47:52;21.23;;;12.77;;
7833;SDS011;3962;42.696;23.354;2023-04-08T11:50:24;13.90;;;10.17;;
7833;SDS011;3962;42.696;23.354;2023-04-08T11:52:54;16.20;;;10.57;;
7833;SDS011;3962;42.696;23.354;2023-04-08T11:55:21;16.60;;;10.57;;
7833;SDS011;3962;42.696;23.354;2023-04-08T11:57:49;17.50;;;9.60;;
7833;SDS011;3962;42.696;23.354;2023-04-08T12:00:17;13.27;;;9.23;;
7833;SDS011;3962;42.696;23.354;2023-04-08T12:02:45;13.57;;;9.17;;
7833;SDS011;3962;42.696;23.354;2023-04-08T12:05:13;15.47;;;9.30;;
7833;SDS011;3962;42.696;23.354;2023-04-08T12:07:40;14.20;;;9.30;;
7833;SDS011;3962;42.696;23.354;2023-04-08T12:10:07;16.00;;;10.03;;
7833;SDS011;3962;42.696;23.354;2023-04-08T12:12:34;15.57;;;11.00;;
7833;SDS011;3962;42.696;23.354;2023-04-08T12:15:01;21.30;;;10.87;;
7833;SDS011;3962;42.696;23.354;2023-04-08T12:17:28;16.47;;;11.47;;
7833;SDS011;3962;42.696;23.354;2023-04-08T12:19:56;18.70;;;10.40;;
7833;SDS011;3962;42.696;23.354;2023-04-08T12:22:23;15.87;;;9.70;;
7833;SDS011;3962;42.696;23.354;2023-04-08T12:24:50;14.80;;;9.23;;
7833;SDS011;3962;42.696;23.354;2023-04-08T12:27:16;11.37;;;7.73;;
7833;SDS011;3962;42.696;23.354;2023-04-08T12:29:44;15.03;;;9.53;;
7833;SDS011;3962;42.696;23.354;2023-04-08T12:32:11;14.87;;;9.20;;
7833;SDS011;3962;42.696;23.354;2023-04-08T12:34:39;17.83;;;9.93;;
7833;SDS011;3962;42.696;23.354;2023-04-08T12:37:07;11.83;;;8.77;;
7833;SDS011;3962;42.696;23.354;2023-04-08T12:39:34;11.57;;;8.50;;
7833;SDS011;3962;42.696;23.354;2023-04-08T12:42:00;12.30;;;8.80;;
7833;SDS011;3962;42.696;23.354;2023-04-08T12:44:27;12.73;;;9.40;;
7833;SDS011;3962;42.696;23.354;2023-04-08T12:46:54;18.03;;;9.50;;
7833;SDS011;3962;42.696;23.354;2023-04-08T12:49:22;13.23;;;8.23;;
7833;SDS011;3962;42.696;23.354;2023-04-08T12:51:49;11.70;;;8.20;;
7833;SDS011;3962;42.696;23.354;2023-04-08T12:54:17;13.73;;;9.63;;
7833;SDS011;3962;42.696;23.354;2023-04-08T12:56:44;14.77;;;10.20;;
7833;SDS011;3962;42.696;23.354;2023-04-08T12:59:10;13.77;;;9.80;;
7833;SDS011;3962;42.696;23.354;2023-04-08T13:01:37;12.53;;;9.30;;
7833;SDS011;3962;42.696;23.354;2023-04-08T13:04:04;11.97;;;9.53;;
7833;SDS011;3962;42.696;23.354;2023-04-08T13:06:31;14.43;;;8.90;;
7833;SDS011;3962;42.696;23.354;2023-04-08T13:08:57;16.50;;;8.93;;
7833;SDS011;3962;42.696;23.354;2023-04-08T13:11:26;14.70;;;9.13;;
7833;SDS011;3962;42.696;23.354;2023-04-08T13:13:53;13.73;;;9.03;;
7833;SDS011;3962;42.696;23.354;2023-04-08T13:16:19;14.07;;;10.00;;
7833;SDS011;3962;42.696;23.354;2023-04-08T13:18:46;13.90;;;9.20;;
7833;SDS011;3962;42.696;23.354;2023-04-08T13:21:13;13.50;;;9.67;;
7833;SDS011;3962;42.696;23.354;2023-04-08T13:23:40;13.97;;;9.20;;
7833;SDS011;3962;42.696;23.354;2023-04-08T13:26:07;13.97;;;9.53;;
7833;SDS011;3962;42.696;23.354;2023-04-08T13:28:35;12.00;;;8.57;;
7833;SDS011;3962;42.696;23.354;2023-04-08T13:31:02;17.60;;;10.07;;
7833;SDS011;3962;42.696;23.354;2023-04-08T13:33:29;14.13;;;8.03;;
7833;SDS011;3962;42.696;23.354;2023-04-08T13:35:55;10.47;;;7.90;;
7833;SDS011;3962;42.696;23.354;2023-04-08T13:38:22;12.77;;;8.47;;
7833;SDS011;3962;42.696;23.354;2023-04-08T13:40:51;13.47;;;8.57;;
7833;SDS011;3962;42.696;23.354;2023-04-08T13:43:18;10.97;;;8.27;;
7833;SDS011;3962;42.696;23.354;2023-04-08T13:45:46;12.07;;;8.40;;
7833;SDS011;3962;42.696;23.354;2023-04-08T13:48:13;12.03;;;8.93;;
7833;SDS011;3962;42.696;23.354;2023-04-08T13:50:40;15.30;;;9.47;;
7833;SDS011;3962;42.696;23.354;2023-04-08T13:53:07;13.97;;;10.60;;
7833;SDS011;3962;42.696;23.354;2023-04-08T13:55:34;23.00;;;15.50;;
7833;SDS011;3962;42.696;23.354;2023-04-08T13:58:01;15.60;;;11.03;;
7833;SDS011;3962;42.696;23.354;2023-04-08T14:00:28;13.67;;;10.47;;
7833;SDS011;3962;42.696;23.354;2023-04-08T14:02:56;13.17;;;9.97;;
7833;SDS011;3962;42.696;23.354;2023-04-08T14:05:23;13.23;;;10.33;;
7833;SDS011;3962;42.696;23.354;2023-04-08T14:07:50;12.03;;;9.27;;
7833;SDS011;3962;42.696;23.354;2023-04-08T14:10:17;14.03;;;9.93;;
7833;SDS011;3962;42.696;23.354;2023-04-08T14:12:44;12.87;;;9.43;;
7833;SDS011;3962;42.696;23.354;2023-04-08T14:15:11;11.97;;;9.23;;
7833;SDS011;3962;42.696;23.354;2023-04-08T14:17:37;13.17;;;10.17;;
7833;SDS011;3962;42.696;23.354;2023-04-08T14:20:06;13.40;;;10.30;;
7833;SDS011;3962;42.696;23.354;2023-04-08T14:22:34;17.67;;;10.27;;
7833;SDS011;3962;42.696;23.354;2023-04-08T14:25:00;17.27;;;11.13;;
7833;SDS011;3962;42.696;23.354;2023-04-08T14:27:27;14.53;;;11.47;;
7833;SDS011;3962;42.696;23.354;2023-04-08T14:29:54;14.23;;;11.00;;
7833;SDS011;3962;42.696;23.354;2023-04-08T14:32:21;14.33;;;10.73;;
7833;SDS011;3962;42.696;23.354;2023-04-08T14:34:48;12.53;;;9.33;;
7833;SDS011;3962;42.696;23.354;2023-04-08T14:37:16;15.00;;;9.60;;
7833;SDS011;3962;42.696;23.354;2023-04-08T14:39:43;15.37;;;10.20;;
7833;SDS011;3962;42.696;23.354;2023-04-08T14:42:10;17.25;;;12.88;;
7833;SDS011;3962;42.696;23.354;2023-04-08T14:44:37;15.30;;;12.07;;
7833;SDS011;3962;42.696;23.354;2023-04-08T14:47:03;16.13;;;12.20;;